sensor_id;sensor_type;location;lat;lon;timestamp;temperature;humidity
64718;DHT22;62506;46.070;14.492;2023-04-03T00:00:25;22.00;54.30
64718;DHT22;62506;46.070;14.492;2023-04-03T00:02:51;22.00;54.20
64718;DHT22;62506;46.070;14.492;2023-04-03T00:05:16;22.00;54.30
64718;DHT22;62506;46.070;14.492;2023-04-03T00:07:42;22.00;54.20
64718;DHT22;62506;46.070;14.492;2023-04-03T00:10:08;22.00;54.20
64718;DHT22;62506;46.070;14.492;2023-04-03T00:12:33;22.00;54.30
64718;DHT22;62506;46.070;14.492;2023-04-03T00:14:59;22.00;54.20
64718;DHT22;62506;46.070;14.492;2023-04-03T00:17:24;22.00;54.30
64718;DHT22;62506;46.070;14.492;2023-04-03T00:19:50;22.00;54.30
64718;DHT22;62506;46.070;14.492;2023-04-03T00:22:15;22.00;54.40
64718;DHT22;62506;46.070;14.492;2023-04-03T00:24:41;22.00;54.40
64718;DHT22;62506;46.070;14.492;2023-04-03T00:27:07;21.90;54.30
64718;DHT22;62506;46.070;14.492;2023-04-03T00:29:32;21.90;54.40
64718;DHT22;62506;46.070;14.492;2023-04-03T00:31:58;21.90;54.30
64718;DHT22;62506;46.070;14.492;2023-04-03T00:34:23;21.90;54.50
64718;DHT22;62506;46.070;14.492;2023-04-03T00:36:49;21.90;54.50
64718;DHT22;62506;46.070;14.492;2023-04-03T00:39:14;21.90;54.40
64718;DHT22;62506;46.070;14.492;2023-04-03T00:41:40;21.90;54.60
64718;DHT22;62506;46.070;14.492;2023-04-03T00:46:50;21.90;54.50
64718;DHT22;62506;46.070;14.492;2023-04-03T00:49:15;21.90;54.50
64718;DHT22;62506;46.070;14.492;2023-04-03T00:51:41;21.90;54.50
64718;DHT22;62506;46.070;14.492;2023-04-03T00:54:07;21.90;54.60
64718;DHT22;62506;46.070;14.492;2023-04-03T00:56:33;21.90;54.50
64718;DHT22;62506;46.070;14.492;2023-04-03T00:59:00;21.90;54.50
64718;DHT22;62506;46.070;14.492;2023-04-03T01:01:27;21.90;54.50
64718;DHT22;62506;46.070;14.492;2023-04-03T01:03:53;21.80;54.40
64718;DHT22;62506;46.070;14.492;2023-04-03T01:06:26;21.80;54.50
64718;DHT22;62506;46.070;14.492;2023-04-03T01:08:52;21.90;54.50
64718;DHT22;62506;46.070;14.492;2023-04-03T01:11:18;21.80;54.30
64718;DHT22;62506;46.070;14.492;2023-04-03T01:13:44;21.90;54.30
64718;DHT22;62506;46.070;14.492;2023-04-03T01:16:09;21.90;54.30
64718;DHT22;62506;46.070;14.492;2023-04-03T01:18:36;21.90;54.20
64718;DHT22;62506;46.070;14.492;2023-04-03T01:26:21;21.90;54.20
64718;DHT22;62506;46.070;14.492;2023-04-03T01:28:47;21.90;54.20
64718;DHT22;62506;46.070;14.492;2023-04-03T01:33:50;21.90;54.10
64718;DHT22;62506;46.070;14.492;2023-04-03T01:36:18;21.90;54.00
64718;DHT22;62506;46.070;14.492;2023-04-03T01:38:44;21.90;54.10
64718;DHT22;62506;46.070;14.492;2023-04-03T01:41:09;21.90;54.10
64718;DHT22;62506;46.070;14.492;2023-04-03T01:43:35;21.80;54.10
64718;DHT22;62506;46.070;14.492;2023-04-03T01:46:00;21.80;54.10
64718;DHT22;62506;46.070;14.492;2023-04-03T01:48:26;21.80;54.10
64718;DHT22;62506;46.070;14.492;2023-04-03T01:50:51;21.80;54.10
64718;DHT22;62506;46.070;14.492;2023-04-03T01:53:17;21.80;54.20
64718;DHT22;62506;46.070;14.492;2023-04-03T01:55:42;21.80;54.20
64718;DHT22;62506;46.070;14.492;2023-04-03T01:58:08;21.80;54.20
64718;DHT22;62506;46.070;14.492;2023-04-03T02:00:33;21.80;54.20
64718;DHT22;62506;46.070;14.492;2023-04-03T02:02:59;21.80;54.20
64718;DHT22;62506;46.070;14.492;2023-04-03T02:05:25;21.80;54.20
64718;DHT22;62506;46.070;14.492;2023-04-03T02:07:50;21.80;54.20
64718;DHT22;62506;46.070;14.492;2023-04-03T02:10:16;21.80;54.20
64718;DHT22;62506;46.070;14.492;2023-04-03T02:12:41;21.80;54.20
64718;DHT22;62506;46.070;14.492;2023-04-03T02:15:07;21.80;54.20
64718;DHT22;62506;46.070;14.492;2023-04-03T02:17:33;21.80;54.20
64718;DHT22;62506;46.070;14.492;2023-04-03T02:20:00;21.80;54.10
64718;DHT22;62506;46.070;14.492;2023-04-03T02:22:25;21.80;54.10
64718;DHT22;62506;46.070;14.492;2023-04-03T02:24:51;21.80;54.00
64718;DHT22;62506;46.070;14.492;2023-04-03T02:27:17;21.80;54.00
64718;DHT22;62506;46.070;14.492;2023-04-03T02:29:42;21.80;54.00
64718;DHT22;62506;46.070;14.492;2023-04-03T02:32:08;21.80;54.00
64718;DHT22;62506;46.070;14.492;2023-04-03T02:34:33;21.80;53.90
64718;DHT22;62506;46.070;14.492;2023-04-03T02:36:59;21.80;53.80
64718;DHT22;62506;46.070;14.492;2023-04-03T02:39:24;21.80;53.70
64718;DHT22;62506;46.070;14.492;2023-04-03T02:41:50;21.80;53.90
64718;DHT22;62506;46.070;14.492;2023-04-03T02:44:16;21.80;53.80
64718;DHT22;62506;46.070;14.492;2023-04-03T02:46:41;21.80;53.80
64718;DHT22;62506;46.070;14.492;2023-04-03T02:49:07;21.80;53.70
64718;DHT22;62506;46.070;14.492;2023-04-03T02:51:32;21.80;53.60
64718;DHT22;62506;46.070;14.492;2023-04-03T02:53:58;21.80;53.60
64718;DHT22;62506;46.070;14.492;2023-04-03T02:56:23;21.80;53.70
64718;DHT22;62506;46.070;14.492;2023-04-03T02:58:49;21.80;53.70
64718;DHT22;62506;46.070;14.492;2023-04-03T03:01:15;21.80;53.70
64718;DHT22;62506;46.070;14.492;2023-04-03T03:03:40;21.80;53.70
64718;DHT22;62506;46.070;14.492;2023-04-03T03:06:07;21.80;53.70
64718;DHT22;62506;46.070;14.492;2023-04-03T03:08:33;21.80;53.80
64718;DHT22;62506;46.070;14.492;2023-04-03T03:10:59;21.80;53.70
64718;DHT22;62506;46.070;14.492;2023-04-03T03:13:24;21.80;53.70
64718;DHT22;62506;46.070;14.492;2023-04-03T03:15:50;21.80;53.70
64718;DHT22;62506;46.070;14.492;2023-04-03T03:18:16;21.80;53.70
64718;DHT22;62506;46.070;14.492;2023-04-03T03:20:41;21.80;53.60
64718;DHT22;62506;46.070;14.492;2023-04-03T03:23:07;21.80;53.70
64718;DHT22;62506;46.070;14.492;2023-04-03T03:25:33;21.70;53.70
64718;DHT22;62506;46.070;14.492;2023-04-03T03:27:58;21.70;53.70
64718;DHT22;62506;46.070;14.492;2023-04-03T03:30:24;21.70;53.80
64718;DHT22;62506;46.070;14.492;2023-04-03T03:32:49;21.70;53.80
64718;DHT22;62506;46.070;14.492;2023-04-03T03:35:15;21.70;53.80
64718;DHT22;62506;46.070;14.492;2023-04-03T03:37:40;21.70;53.70
64718;DHT22;62506;46.070;14.492;2023-04-03T03:40:06;21.70;53.70
64718;DHT22;62506;46.070;14.492;2023-04-03T03:42:32;21.70;53.70
64718;DHT22;62506;46.070;14.492;2023-04-03T03:44:57;21.70;53.60
64718;DHT22;62506;46.070;14.492;2023-04-03T03:47:23;21.70;53.60
64718;DHT22;62506;46.070;14.492;2023-04-03T03:49:48;21.70;53.60
64718;DHT22;62506;46.070;14.492;2023-04-03T03:52:14;21.70;53.60
64718;DHT22;62506;46.070;14.492;2023-04-03T03:54:39;21.70;53.60
64718;DHT22;62506;46.070;14.492;2023-04-03T03:57:05;21.70;53.60
64718;DHT22;62506;46.070;14.492;2023-04-03T03:59:30;21.70;53.60
64718;DHT22;62506;46.070;14.492;2023-04-03T04:01:56;21.70;53.60
64718;DHT22;62506;46.070;14.492;2023-04-03T04:04:22;21.70;53.70
64718;DHT22;62506;46.070;14.492;2023-04-03T04:06:47;21.70;53.90
64718;DHT22;62506;46.070;14.492;2023-04-03T04:09:13;21.80;54.10
64718;DHT22;62506;46.070;14.492;2023-04-03T04:11:38;21.80;54.30
64718;DHT22;62506;46.070;14.492;2023-04-03T04:14:06;21.80;55.10
64718;DHT22;62506;46.070;14.492;2023-04-03T04:16:31;21.80;54.60
64718;DHT22;62506;46.070;14.492;2023-04-03T04:18:57;21.80;54.60
64718;DHT22;62506;46.070;14.492;2023-04-03T04:21:22;21.80;55.30
64718;DHT22;62506;46.070;14.492;2023-04-03T04:23:48;21.90;54.70
64718;DHT22;62506;46.070;14.492;2023-04-03T04:26:13;21.90;55.60
64718;DHT22;62506;46.070;14.492;2023-04-03T04:28:39;21.90;55.00
64718;DHT22;62506;46.070;14.492;2023-04-03T04:31:04;22.00;55.20
64718;DHT22;62506;46.070;14.492;2023-04-03T04:33:30;22.00;54.60
64718;DHT22;62506;46.070;14.492;2023-04-03T04:35:55;22.00;54.40
64718;DHT22;62506;46.070;14.492;2023-04-03T04:38:21;21.90;54.60
64718;DHT22;62506;46.070;14.492;2023-04-03T04:40:47;21.90;55.20
64718;DHT22;62506;46.070;14.492;2023-04-03T04:43:13;21.90;53.40
64718;DHT22;62506;46.070;14.492;2023-04-03T04:45:40;21.90;52.80
64718;DHT22;62506;46.070;14.492;2023-04-03T04:48:05;21.90;54.20
64718;DHT22;62506;46.070;14.492;2023-04-03T04:50:31;21.90;54.20
64718;DHT22;62506;46.070;14.492;2023-04-03T04:52:56;21.90;54.40
64718;DHT22;62506;46.070;14.492;2023-04-03T04:55:22;21.90;54.10
64718;DHT22;62506;46.070;14.492;2023-04-03T04:57:47;21.90;53.90
64718;DHT22;62506;46.070;14.492;2023-04-03T05:00:13;21.90;53.90
64718;DHT22;62506;46.070;14.492;2023-04-03T05:02:39;21.90;53.70
64718;DHT22;62506;46.070;14.492;2023-04-03T05:05:04;21.90;53.90
64718;DHT22;62506;46.070;14.492;2023-04-03T05:07:30;21.90;54.20
64718;DHT22;62506;46.070;14.492;2023-04-03T05:09:55;21.90;54.10
64718;DHT22;62506;46.070;14.492;2023-04-03T05:12:21;21.90;54.20
64718;DHT22;62506;46.070;14.492;2023-04-03T05:14:47;21.90;54.20
64718;DHT22;62506;46.070;14.492;2023-04-03T05:17:12;21.90;52.50
64718;DHT22;62506;46.070;14.492;2023-04-03T05:19:38;21.90;53.80
64718;DHT22;62506;46.070;14.492;2023-04-03T05:22:03;21.90;54.00
64718;DHT22;62506;46.070;14.492;2023-04-03T05:24:29;21.80;51.90
64718;DHT22;62506;46.070;14.492;2023-04-03T05:26:55;21.80;52.20
64718;DHT22;62506;46.070;14.492;2023-04-03T05:29:20;21.80;53.00
64718;DHT22;62506;46.070;14.492;2023-04-03T05:31:48;21.80;53.40
64718;DHT22;62506;46.070;14.492;2023-04-03T05:34:14;21.80;53.30
64718;DHT22;62506;46.070;14.492;2023-04-03T05:36:39;21.80;53.40
64718;DHT22;62506;46.070;14.492;2023-04-03T05:39:05;21.80;53.40
64718;DHT22;62506;46.070;14.492;2023-04-03T05:41:31;21.80;53.40
64718;DHT22;62506;46.070;14.492;2023-04-03T05:43:56;21.80;53.30
64718;DHT22;62506;46.070;14.492;2023-04-03T05:46:22;21.80;53.40
64718;DHT22;62506;46.070;14.492;2023-04-03T05:48:48;21.80;53.40
64718;DHT22;62506;46.070;14.492;2023-04-03T05:51:14;21.80;53.20
64718;DHT22;62506;46.070;14.492;2023-04-03T05:53:40;21.80;52.70
64718;DHT22;62506;46.070;14.492;2023-04-03T05:56:06;21.70;52.40
64718;DHT22;62506;46.070;14.492;2023-04-03T05:58:32;21.70;52.80
64718;DHT22;62506;46.070;14.492;2023-04-03T06:00:57;21.70;52.90
64718;DHT22;62506;46.070;14.492;2023-04-03T06:03:23;21.70;52.80
64718;DHT22;62506;46.070;14.492;2023-04-03T06:05:48;21.70;52.80
64718;DHT22;62506;46.070;14.492;2023-04-03T06:08:14;21.70;52.80
64718;DHT22;62506;46.070;14.492;2023-04-03T06:10:40;21.70;52.80
64718;DHT22;62506;46.070;14.492;2023-04-03T06:13:05;21.70;52.70
64718;DHT22;62506;46.070;14.492;2023-04-03T06:15:31;21.70;52.80
64718;DHT22;62506;46.070;14.492;2023-04-03T06:17:57;21.70;52.70
64718;DHT22;62506;46.070;14.492;2023-04-03T06:20:22;21.70;52.80
64718;DHT22;62506;46.070;14.492;2023-04-03T06:22:48;21.70;52.80
64718;DHT22;62506;46.070;14.492;2023-04-03T06:25:14;21.70;52.90
64718;DHT22;62506;46.070;14.492;2023-04-03T06:27:39;21.70;52.80
64718;DHT22;62506;46.070;14.492;2023-04-03T06:30:06;21.70;52.80
64718;DHT22;62506;46.070;14.492;2023-04-03T06:32:31;21.70;52.90
64718;DHT22;62506;46.070;14.492;2023-04-03T06:34:57;21.70;52.90
64718;DHT22;62506;46.070;14.492;2023-04-03T06:37:23;21.70;52.90
64718;DHT22;62506;46.070;14.492;2023-04-03T06:39:54;21.70;52.90
64718;DHT22;62506;46.070;14.492;2023-04-03T06:42:20;21.70;52.90
64718;DHT22;62506;46.070;14.492;2023-04-03T06:44:46;21.70;52.90
64718;DHT22;62506;46.070;14.492;2023-04-03T06:47:12;21.70;52.80
64718;DHT22;62506;46.070;14.492;2023-04-03T06:49:38;21.70;52.60
64718;DHT22;62506;46.070;14.492;2023-04-03T06:52:04;21.80;52.60
64718;DHT22;62506;46.070;14.492;2023-04-03T06:54:30;21.80;52.70
64718;DHT22;62506;46.070;14.492;2023-04-03T06:56:56;21.80;52.50
64718;DHT22;62506;46.070;14.492;2023-04-03T06:59:22;21.80;52.40
64718;DHT22;62506;46.070;14.492;2023-04-03T07:01:47;21.80;52.30
64718;DHT22;62506;46.070;14.492;2023-04-03T07:04:14;21.80;52.30
64718;DHT22;62506;46.070;14.492;2023-04-03T07:06:40;21.80;52.30
64718;DHT22;62506;46.070;14.492;2023-04-03T07:09:05;21.80;52.30
64718;DHT22;62506;46.070;14.492;2023-04-03T07:11:31;21.80;52.20
64718;DHT22;62506;46.070;14.492;2023-04-03T07:13:56;21.80;52.20
64718;DHT22;62506;46.070;14.492;2023-04-03T07:16:22;21.80;52.40
64718;DHT22;62506;46.070;14.492;2023-04-03T07:18:48;21.80;52.10
64718;DHT22;62506;46.070;14.492;2023-04-03T07:21:14;21.80;52.00
64718;DHT22;62506;46.070;14.492;2023-04-03T07:23:39;21.80;51.90
64718;DHT22;62506;46.070;14.492;2023-04-03T07:26:05;21.80;52.10
64718;DHT22;62506;46.070;14.492;2023-04-03T07:28:31;21.80;52.00
64718;DHT22;62506;46.070;14.492;2023-04-03T07:31:04;21.80;51.90
64718;DHT22;62506;46.070;14.492;2023-04-03T07:33:31;21.80;51.90
64718;DHT22;62506;46.070;14.492;2023-04-03T07:35:57;21.80;51.90
64718;DHT22;62506;46.070;14.492;2023-04-03T07:38:22;21.80;51.80
64718;DHT22;62506;46.070;14.492;2023-04-03T07:40:48;21.80;51.80
64718;DHT22;62506;46.070;14.492;2023-04-03T07:43:15;21.80;51.80
64718;DHT22;62506;46.070;14.492;2023-04-03T07:45:41;21.80;51.80
64718;DHT22;62506;46.070;14.492;2023-04-03T07:48:07;21.80;51.70
64718;DHT22;62506;46.070;14.492;2023-04-03T07:50:32;21.80;51.50
64718;DHT22;62506;46.070;14.492;2023-04-03T07:52:58;21.80;51.40
64718;DHT22;62506;46.070;14.492;2023-04-03T07:55:24;21.80;51.30
64718;DHT22;62506;46.070;14.492;2023-04-03T07:57:49;21.80;51.20
64718;DHT22;62506;46.070;14.492;2023-04-03T08:00:15;21.80;51.10
64718;DHT22;62506;46.070;14.492;2023-04-03T08:02:43;21.80;51.10
64718;DHT22;62506;46.070;14.492;2023-04-03T08:05:09;21.90;51.00
64718;DHT22;62506;46.070;14.492;2023-04-03T08:07:36;21.90;51.00
64718;DHT22;62506;46.070;14.492;2023-04-03T08:10:02;21.90;51.00
64718;DHT22;62506;46.070;14.492;2023-04-03T08:12:27;21.90;50.90
64718;DHT22;62506;46.070;14.492;2023-04-03T08:14:55;21.90;50.90
64718;DHT22;62506;46.070;14.492;2023-04-03T08:17:21;21.90;50.80
64718;DHT22;62506;46.070;14.492;2023-04-03T08:19:46;21.90;50.70
64718;DHT22;62506;46.070;14.492;2023-04-03T08:22:12;21.90;50.70
64718;DHT22;62506;46.070;14.492;2023-04-03T08:24:37;21.90;50.50
64718;DHT22;62506;46.070;14.492;2023-04-03T08:27:03;21.90;50.40
64718;DHT22;62506;46.070;14.492;2023-04-03T08:29:29;21.90;50.40
64718;DHT22;62506;46.070;14.492;2023-04-03T08:31:54;21.90;50.40
64718;DHT22;62506;46.070;14.492;2023-04-03T08:34:20;21.90;50.30
64718;DHT22;62506;46.070;14.492;2023-04-03T08:36:46;21.90;50.20
64718;DHT22;62506;46.070;14.492;2023-04-03T08:39:12;21.90;50.10
64718;DHT22;62506;46.070;14.492;2023-04-03T08:41:38;21.90;50.10
64718;DHT22;62506;46.070;14.492;2023-04-03T08:47:23;21.90;50.00
64718;DHT22;62506;46.070;14.492;2023-04-03T08:49:24;21.90;49.90
64718;DHT22;62506;46.070;14.492;2023-04-03T08:51:51;21.90;49.90
64718;DHT22;62506;46.070;14.492;2023-04-03T08:54:37;21.90;50.00
64718;DHT22;62506;46.070;14.492;2023-04-03T08:57:04;21.90;49.90
64718;DHT22;62506;46.070;14.492;2023-04-03T08:59:32;21.90;49.80
64718;DHT22;62506;46.070;14.492;2023-04-03T09:02:00;21.90;49.70
64718;DHT22;62506;46.070;14.492;2023-04-03T09:04:27;21.90;50.40
64718;DHT22;62506;46.070;14.492;2023-04-03T09:06:54;21.90;49.50
64718;DHT22;62506;46.070;14.492;2023-04-03T09:12:04;21.90;49.40
64718;DHT22;62506;46.070;14.492;2023-04-03T09:17:14;21.80;49.30
64718;DHT22;62506;46.070;14.492;2023-04-03T09:19:42;21.90;49.30
64718;DHT22;62506;46.070;14.492;2023-04-03T09:22:20;21.80;49.30
64718;DHT22;62506;46.070;14.492;2023-04-03T09:24:48;21.80;49.40
64718;DHT22;62506;46.070;14.492;2023-04-03T09:27:14;21.80;49.30
64718;DHT22;62506;46.070;14.492;2023-04-03T09:29:40;21.80;49.30
64718;DHT22;62506;46.070;14.492;2023-04-03T09:32:29;21.80;49.50
64718;DHT22;62506;46.070;14.492;2023-04-03T09:34:54;21.80;49.20
64718;DHT22;62506;46.070;14.492;2023-04-03T09:37:40;21.80;49.10
64718;DHT22;62506;46.070;14.492;2023-04-03T09:40:29;21.80;49.10
64718;DHT22;62506;46.070;14.492;2023-04-03T09:42:56;21.80;49.50
64718;DHT22;62506;46.070;14.492;2023-04-03T09:45:25;21.90;49.60
64718;DHT22;62506;46.070;14.492;2023-04-03T09:48:05;21.80;49.50
64718;DHT22;62506;46.070;14.492;2023-04-03T09:50:30;21.80;49.70
64718;DHT22;62506;46.070;14.492;2023-04-03T09:52:56;21.80;48.40
64718;DHT22;62506;46.070;14.492;2023-04-03T09:57:58;21.90;49.10
64718;DHT22;62506;46.070;14.492;2023-04-03T10:00:37;21.90;49.10
64718;DHT22;62506;46.070;14.492;2023-04-03T10:03:04;21.90;49.10
64718;DHT22;62506;46.070;14.492;2023-04-03T10:10:40;21.80;46.80
64718;DHT22;62506;46.070;14.492;2023-04-03T10:13:13;21.70;43.40
64718;DHT22;62506;46.070;14.492;2023-04-03T10:15:44;21.80;46.00
64718;DHT22;62506;46.070;14.492;2023-04-03T10:18:17;21.80;47.80
64718;DHT22;62506;46.070;14.492;2023-04-03T10:20:48;21.80;48.40
64718;DHT22;62506;46.070;14.492;2023-04-03T10:23:25;21.80;48.50
64718;DHT22;62506;46.070;14.492;2023-04-03T10:28:21;21.80;48.70
64718;DHT22;62506;46.070;14.492;2023-04-03T10:35:56;21.80;49.00
64718;DHT22;62506;46.070;14.492;2023-04-03T10:38:31;21.80;49.10
64718;DHT22;62506;46.070;14.492;2023-04-03T10:41:16;21.80;49.10
64718;DHT22;62506;46.070;14.492;2023-04-03T10:44:18;21.80;49.20
64718;DHT22;62506;46.070;14.492;2023-04-03T10:49:10;21.80;49.10
64718;DHT22;62506;46.070;14.492;2023-04-03T10:52:02;21.80;49.00
64718;DHT22;62506;46.070;14.492;2023-04-03T10:54:41;21.80;49.00
64718;DHT22;62506;46.070;14.492;2023-04-03T10:57:09;21.80;49.00
64718;DHT22;62506;46.070;14.492;2023-04-03T10:59:40;21.80;49.10
64718;DHT22;62506;46.070;14.492;2023-04-03T11:02:11;21.80;49.20
64718;DHT22;62506;46.070;14.492;2023-04-03T11:04:40;21.80;49.20
64718;DHT22;62506;46.070;14.492;2023-04-03T11:07:11;21.80;49.20
64718;DHT22;62506;46.070;14.492;2023-04-03T11:09:40;21.80;49.00
64718;DHT22;62506;46.070;14.492;2023-04-03T11:12:13;21.80;49.20
64718;DHT22;62506;46.070;14.492;2023-04-03T11:14:41;21.80;48.90
64718;DHT22;62506;46.070;14.492;2023-04-03T11:22:00;21.80;48.70
64718;DHT22;62506;46.070;14.492;2023-04-03T11:24:29;21.80;48.90
64718;DHT22;62506;46.070;14.492;2023-04-03T11:26:57;21.80;49.00
64718;DHT22;62506;46.070;14.492;2023-04-03T11:29:25;21.90;49.20
64718;DHT22;62506;46.070;14.492;2023-04-03T11:38:07;21.90;48.70
64718;DHT22;62506;46.070;14.492;2023-04-03T11:40:03;21.90;49.10
64718;DHT22;62506;46.070;14.492;2023-04-03T11:42:40;21.80;48.50
64718;DHT22;62506;46.070;14.492;2023-04-03T11:47:48;21.80;48.40
64718;DHT22;62506;46.070;14.492;2023-04-03T11:50:56;21.80;48.50
64718;DHT22;62506;46.070;14.492;2023-04-03T12:05:56;21.80;48.10
64718;DHT22;62506;46.070;14.492;2023-04-03T12:08:29;21.80;48.10
64718;DHT22;62506;46.070;14.492;2023-04-03T12:13:33;21.80;48.20
64718;DHT22;62506;46.070;14.492;2023-04-03T12:15:59;21.80;48.20
64718;DHT22;62506;46.070;14.492;2023-04-03T12:18:39;21.80;48.20
64718;DHT22;62506;46.070;14.492;2023-04-03T12:21:05;21.80;48.20
64718;DHT22;62506;46.070;14.492;2023-04-03T12:23:32;21.70;48.30
64718;DHT22;62506;46.070;14.492;2023-04-03T12:26:40;21.70;48.40
64718;DHT22;62506;46.070;14.492;2023-04-03T12:28:47;21.70;48.40
64718;DHT22;62506;46.070;14.492;2023-04-03T12:31:13;21.70;47.90
64718;DHT22;62506;46.070;14.492;2023-04-03T12:33:47;21.70;48.10
64718;DHT22;62506;46.070;14.492;2023-04-03T12:36:25;21.70;48.30
64718;DHT22;62506;46.070;14.492;2023-04-03T12:39:17;21.70;48.40
64718;DHT22;62506;46.070;14.492;2023-04-03T12:41:56;21.70;46.40
64718;DHT22;62506;46.070;14.492;2023-04-03T12:44:40;21.70;46.80
64718;DHT22;62506;46.070;14.492;2023-04-03T12:47:43;21.60;46.80
64718;DHT22;62506;46.070;14.492;2023-04-03T12:50:03;21.70;47.80
64718;DHT22;62506;46.070;14.492;2023-04-03T12:52:34;21.70;48.40
64718;DHT22;62506;46.070;14.492;2023-04-03T12:55:02;21.70;46.70
64718;DHT22;62506;46.070;14.492;2023-04-03T12:57:30;21.70;47.00
64718;DHT22;62506;46.070;14.492;2023-04-03T12:59:55;21.70;47.60
64718;DHT22;62506;46.070;14.492;2023-04-03T13:02:23;21.80;47.90
64718;DHT22;62506;46.070;14.492;2023-04-03T13:04:49;21.80;48.00
64718;DHT22;62506;46.070;14.492;2023-04-03T13:07:32;21.80;48.00
64718;DHT22;62506;46.070;14.492;2023-04-03T13:12:30;21.90;47.50
64718;DHT22;62506;46.070;14.492;2023-04-03T13:14:57;21.90;48.10
64718;DHT22;62506;46.070;14.492;2023-04-03T13:17:24;21.90;45.20
64718;DHT22;62506;46.070;14.492;2023-04-03T13:19:50;21.80;46.40
64718;DHT22;62506;46.070;14.492;2023-04-03T13:24:55;21.90;47.20
64718;DHT22;62506;46.070;14.492;2023-04-03T13:27:23;21.90;47.40
64718;DHT22;62506;46.070;14.492;2023-04-03T13:29:50;21.90;47.40
64718;DHT22;62506;46.070;14.492;2023-04-03T13:32:18;21.90;47.40
64718;DHT22;62506;46.070;14.492;2023-04-03T13:34:45;22.00;47.30
64718;DHT22;62506;46.070;14.492;2023-04-03T13:37:27;21.90;47.20
64718;DHT22;62506;46.070;14.492;2023-04-03T13:39:57;22.00;47.50
64718;DHT22;62506;46.070;14.492;2023-04-03T13:42:24;22.00;47.40
64718;DHT22;62506;46.070;14.492;2023-04-03T13:45:06;22.00;47.80
64718;DHT22;62506;46.070;14.492;2023-04-03T13:47:37;22.00;47.40
64718;DHT22;62506;46.070;14.492;2023-04-03T13:50:13;22.00;47.10
64718;DHT22;62506;46.070;14.492;2023-04-03T13:52:40;22.00;47.40
64718;DHT22;62506;46.070;14.492;2023-04-03T13:55:26;22.00;47.40
64718;DHT22;62506;46.070;14.492;2023-04-03T14:00:19;22.00;47.40
64718;DHT22;62506;46.070;14.492;2023-04-03T14:02:46;22.00;47.50
64718;DHT22;62506;46.070;14.492;2023-04-03T14:05:12;21.90;47.40
64718;DHT22;62506;46.070;14.492;2023-04-03T14:07:38;22.00;47.30
64718;DHT22;62506;46.070;14.492;2023-04-03T14:10:03;22.00;47.30
64718;DHT22;62506;46.070;14.492;2023-04-03T14:12:31;22.10;47.60
64718;DHT22;62506;46.070;14.492;2023-04-03T14:14:59;22.10;47.20
64718;DHT22;62506;46.070;14.492;2023-04-03T14:17:25;22.10;47.90
64718;DHT22;62506;46.070;14.492;2023-04-03T14:19:52;22.10;47.30
64718;DHT22;62506;46.070;14.492;2023-04-03T14:22:22;22.10;47.00
64718;DHT22;62506;46.070;14.492;2023-04-03T14:24:48;22.10;47.20
64718;DHT22;62506;46.070;14.492;2023-04-03T14:27:21;22.10;46.80
64718;DHT22;62506;46.070;14.492;2023-04-03T14:29:47;22.10;44.20
64718;DHT22;62506;46.070;14.492;2023-04-03T14:32:13;22.10;45.80
64718;DHT22;62506;46.070;14.492;2023-04-03T14:34:40;22.10;42.80
64718;DHT22;62506;46.070;14.492;2023-04-03T14:37:09;22.10;44.20
64718;DHT22;62506;46.070;14.492;2023-04-03T14:39:35;22.10;44.80
64718;DHT22;62506;46.070;14.492;2023-04-03T14:42:00;22.10;41.70
64718;DHT22;62506;46.070;14.492;2023-04-03T14:44:25;22.10;42.40
64718;DHT22;62506;46.070;14.492;2023-04-03T14:46:51;22.20;43.60
64718;DHT22;62506;46.070;14.492;2023-04-03T14:49:21;22.20;44.30
64718;DHT22;62506;46.070;14.492;2023-04-03T14:51:47;22.30;44.60
64718;DHT22;62506;46.070;14.492;2023-04-03T14:54:14;22.30;44.60
64718;DHT22;62506;46.070;14.492;2023-04-03T14:56:41;22.30;44.70
64718;DHT22;62506;46.070;14.492;2023-04-03T14:59:09;22.40;44.80
64718;DHT22;62506;46.070;14.492;2023-04-03T15:01:36;22.40;45.40
64718;DHT22;62506;46.070;14.492;2023-04-03T15:04:01;22.40;45.30
64718;DHT22;62506;46.070;14.492;2023-04-03T15:06:30;22.50;45.60
64718;DHT22;62506;46.070;14.492;2023-04-03T15:08:57;22.50;45.10
64718;DHT22;62506;46.070;14.492;2023-04-03T15:11:22;22.50;44.50
64718;DHT22;62506;46.070;14.492;2023-04-03T15:13:48;22.50;44.90
64718;DHT22;62506;46.070;14.492;2023-04-03T15:16:16;22.60;45.80
64718;DHT22;62506;46.070;14.492;2023-04-03T15:18:42;22.60;45.70
64718;DHT22;62506;46.070;14.492;2023-04-03T15:21:09;22.60;45.70
64718;DHT22;62506;46.070;14.492;2023-04-03T15:23:34;22.70;45.80
64718;DHT22;62506;46.070;14.492;2023-04-03T15:26:00;22.70;45.60
64718;DHT22;62506;46.070;14.492;2023-04-03T15:28:33;22.70;45.80
64718;DHT22;62506;46.070;14.492;2023-04-03T15:30:59;22.70;46.20
64718;DHT22;62506;46.070;14.492;2023-04-03T15:33:25;22.80;47.30
64718;DHT22;62506;46.070;14.492;2023-04-03T15:35:51;22.80;48.20
64718;DHT22;62506;46.070;14.492;2023-04-03T15:38:17;22.80;48.90
64718;DHT22;62506;46.070;14.492;2023-04-03T15:40:42;22.80;49.70
64718;DHT22;62506;46.070;14.492;2023-04-03T15:43:09;22.90;49.70
64718;DHT22;62506;46.070;14.492;2023-04-03T15:45:35;22.90;49.80
64718;DHT22;62506;46.070;14.492;2023-04-03T15:48:02;22.80;50.00
64718;DHT22;62506;46.070;14.492;2023-04-03T15:50:27;22.90;50.50
64718;DHT22;62506;46.070;14.492;2023-04-03T15:52:53;22.80;50.00
64718;DHT22;62506;46.070;14.492;2023-04-03T15:55:24;22.80;49.80
64718;DHT22;62506;46.070;14.492;2023-04-03T15:57:50;22.80;49.80
64718;DHT22;62506;46.070;14.492;2023-04-03T16:00:16;22.80;49.80
64718;DHT22;62506;46.070;14.492;2023-04-03T16:02:42;22.80;50.00
64718;DHT22;62506;46.070;14.492;2023-04-03T16:05:08;22.80;49.90
64718;DHT22;62506;46.070;14.492;2023-04-03T16:07:34;22.80;50.00
64718;DHT22;62506;46.070;14.492;2023-04-03T16:10:01;22.70;49.80
64718;DHT22;62506;46.070;14.492;2023-04-03T16:12:27;22.80;50.60
64718;DHT22;62506;46.070;14.492;2023-04-03T16:14:53;22.90;50.20
64718;DHT22;62506;46.070;14.492;2023-04-03T16:17:18;22.90;50.00
64718;DHT22;62506;46.070;14.492;2023-04-03T16:19:44;22.90;49.80
64718;DHT22;62506;46.070;14.492;2023-04-03T16:22:09;22.90;49.70
64718;DHT22;62506;46.070;14.492;2023-04-03T16:24:35;22.90;49.60
64718;DHT22;62506;46.070;14.492;2023-04-03T16:27:01;22.90;49.60
64718;DHT22;62506;46.070;14.492;2023-04-03T16:29:26;22.90;49.50